North Lanarkshire, United Kingdom

1:00 PM BST on August 26, 2016 (GMT +0100)
| | Change Station

Elev -9999 ft 0.00 °N, 0.00 °E | Updated

Partly Cloudy
Partly Cloudy
59 °F
Feels Like 59 °F
N
18
Wind Variable Wind from WSW
Gusts mph

Today
High -- | Low -- °F
--% Chance of Precip.
Yesterday
High -- | Low -- °F
Precip. -- in
Pressure 29.92 in
Visibility 6.2 miles
Clouds Scattered Clouds 2800 ft
Dew Point 49 °F
Humidity 69%
Rainfall --
Snow Depth Not available.
6:09 AM 8:23 PM
Waning Crescent, 35% visible
METAR EGPH 261150Z 26014G24KT 230V290 9999 SCT028 18/11 Q1013
Pressure 29.92 in
Visibility 6.2 miles
Clouds Scattered Clouds 2800 ft
Dew Point 49 °F
Humidity 69%
Rainfall --
Snow Depth Not available.
6:09 AM 8:23 PM
Waning Crescent, 35% visible
METAR EGPH 261150Z 26014G24KT 230V290 9999 SCT028 18/11 Q1013

10-Day Weather Forecast

×

Almanac

Astronomy

Aug. 26, 2016 Rise Set
Actual Time
Civil Twilight
Nautical Twilight
Astronomical Twilight
Moon
Length of Visible Light
Length of Day
Tomorrow will be .
, % of the Moon is Illuminated

Today's Extremes

Country Highs Country Lows

Community

WunderPhotos

Upload Photos

1,935,071 photos uploaded!

WunderBlog® & News

Nearby

Air Quality

  Air Quality AQ Index Pollutant
Not available.

Snow Depth

Station Depth Elevation

Earthquake Activity

City Distance Mag. Time & Date
Minimum magnitude displayed is 2.5.

Coastal Water Temperatures

Place Temperature

Stations

Nearby Weather Stations

Station Location Temp. Windchill Dew Point Humidity Wind Precip. Elev Updated Type